sensor_id;sensor_type;location;lat;lon;timestamp;P1;durP1;ratioP1;P2;durP2;ratioP2
76117;SDS011;64851;50.232;20.364;2022-11-15T08:05:42;7.40;;;5.40;;
76117;SDS011;64851;50.232;20.364;2022-11-15T08:08:37;10.60;;;7.50;;
76117;SDS011;64851;50.232;20.364;2022-11-15T08:11:32;8.40;;;5.90;;
76117;SDS011;64851;50.232;20.364;2022-11-15T08:14:07;7.90;;;5.20;;
76117;SDS011;64851;50.232;20.364;2022-11-15T08:17:02;10.10;;;5.80;;
76117;SDS011;64851;50.232;20.364;2022-11-15T08:19:57;9.70;;;6.60;;
76117;SDS011;64851;50.232;20.364;2022-11-15T08:22:52;9.00;;;5.30;;
76117;SDS011;64851;50.232;20.364;2022-11-15T08:25:47;13.50;;;9.30;;
76117;SDS011;64851;50.232;20.364;2022-11-15T08:28:22;9.70;;;5.80;;
76117;SDS011;64851;50.232;20.364;2022-11-15T08:31:18;11.10;;;5.60;;
76117;SDS011;64851;50.232;20.364;2022-11-15T08:34:12;9.50;;;5.90;;
76117;SDS011;64851;50.232;20.364;2022-11-15T08:36:47;10.00;;;5.70;;
76117;SDS011;64851;50.232;20.364;2022-11-15T08:39:35;8.90;;;5.10;;
76117;SDS011;64851;50.232;20.364;2022-11-15T08:42:17;11.60;;;5.80;;
76117;SDS011;64851;50.232;20.364;2022-11-15T08:44:57;7.30;;;4.00;;
76117;SDS011;64851;50.232;20.364;2022-11-15T08:47:39;8.70;;;4.50;;
76117;SDS011;64851;50.232;20.364;2022-11-15T08:50:26;7.40;;;4.60;;
76117;SDS011;64851;50.232;20.364;2022-11-15T08:53:08;9.70;;;4.30;;
76117;SDS011;64851;50.232;20.364;2022-11-15T08:55:55;5.60;;;3.50;;
76117;SDS011;64851;50.232;20.364;2022-11-15T08:58:30;8.10;;;4.50;;
76117;SDS011;64851;50.232;20.364;2022-11-15T09:01:19;16.90;;;10.50;;
76117;SDS011;64851;50.232;20.364;2022-11-15T09:03:54;9.90;;;5.50;;
76117;SDS011;64851;50.232;20.364;2022-11-15T09:06:49;7.90;;;4.20;;
76117;SDS011;64851;50.232;20.364;2022-11-15T15:57:17;23.20;;;15.30;;
76117;SDS011;64851;50.232;20.364;2022-11-15T16:00:10;24.60;;;16.00;;
76117;SDS011;64851;50.232;20.364;2022-11-15T16:02:56;25.50;;;17.00;;
76117;SDS011;64851;50.232;20.364;2022-11-15T16:05:43;27.60;;;18.20;;
76117;SDS011;64851;50.232;20.364;2022-11-15T16:08:36;27.50;;;17.60;;
76117;SDS011;64851;50.232;20.364;2022-11-15T16:11:49;30.00;;;17.00;;
76117;SDS011;64851;50.232;20.364;2022-11-15T16:14:42;24.90;;;16.10;;
76117;SDS011;64851;50.232;20.364;2022-11-15T16:17:18;30.60;;;19.50;;
76117;SDS011;64851;50.232;20.364;2022-11-15T16:23:27;32.30;;;18.70;;
76117;SDS011;64851;50.232;20.364;2022-11-15T16:26:00;31.40;;;20.40;;
76117;SDS011;64851;50.232;20.364;2022-11-15T16:28:46;35.50;;;20.40;;
76117;SDS011;64851;50.232;20.364;2022-11-15T16:31:19;43.40;;;25.40;;
76117;SDS011;64851;50.232;20.364;2022-11-15T16:34:05;51.80;;;29.90;;
76117;SDS011;64851;50.232;20.364;2022-11-15T16:36:39;42.80;;;21.00;;
76117;SDS011;64851;50.232;20.364;2022-11-15T16:39:25;31.90;;;16.70;;
76117;SDS011;64851;50.232;20.364;2022-11-15T16:42:00;38.30;;;19.90;;
76117;SDS011;64851;50.232;20.364;2022-11-15T16:44:55;44.30;;;24.80;;
76117;SDS011;64851;50.232;20.364;2022-11-15T16:47:49;41.00;;;23.10;;
76117;SDS011;64851;50.232;20.364;2022-11-15T16:50:42;30.30;;;14.70;;
76117;SDS011;64851;50.232;20.364;2022-11-15T16:53:15;24.20;;;13.20;;
76117;SDS011;64851;50.232;20.364;2022-11-15T16:56:19;27.60;;;16.90;;
76117;SDS011;64851;50.232;20.364;2022-11-15T16:59:15;32.70;;;20.40;;
76117;SDS011;64851;50.232;20.364;2022-11-15T17:01:49;34.70;;;23.80;;
76117;SDS011;64851;50.232;20.364;2022-11-15T17:04:35;36.90;;;23.20;;
76117;SDS011;64851;50.232;20.364;2022-11-15T17:07:08;32.60;;;17.60;;
76117;SDS011;64851;50.232;20.364;2022-11-15T17:10:01;28.60;;;16.90;;
76117;SDS011;64851;50.232;20.364;2022-11-15T17:12:54;35.30;;;21.70;;
76117;SDS011;64851;50.232;20.364;2022-11-15T17:15:48;37.70;;;23.70;;
76117;SDS011;64851;50.232;20.364;2022-11-15T17:18:23;44.80;;;27.40;;
76117;SDS011;64851;50.232;20.364;2022-11-15T17:21:15;68.40;;;51.80;;
76117;SDS011;64851;50.232;20.364;2022-11-15T17:24:14;79.90;;;62.40;;
76117;SDS011;64851;50.232;20.364;2022-11-15T17:27:10;73.60;;;62.60;;
76117;SDS011;64851;50.232;20.364;2022-11-15T17:29:46;63.60;;;49.60;;
76117;SDS011;64851;50.232;20.364;2022-11-15T17:32:37;61.60;;;48.60;;
76117;SDS011;64851;50.232;20.364;2022-11-15T17:35:10;56.20;;;45.00;;
76117;SDS011;64851;50.232;20.364;2022-11-15T17:38:00;53.50;;;40.70;;
76117;SDS011;64851;50.232;20.364;2022-11-15T17:40:33;52.50;;;40.90;;
76117;SDS011;64851;50.232;20.364;2022-11-15T17:43:27;48.30;;;36.70;;
76117;SDS011;64851;50.232;20.364;2022-11-15T17:46:21;46.40;;;34.70;;
76117;SDS011;64851;50.232;20.364;2022-11-15T17:48:57;43.80;;;32.30;;
76117;SDS011;64851;50.232;20.364;2022-11-15T17:51:51;45.10;;;30.80;;
76117;SDS011;64851;50.232;20.364;2022-11-15T17:54:47;36.60;;;31.00;;
76117;SDS011;64851;50.232;20.364;2022-11-15T17:57:42;41.00;;;25.70;;
76117;SDS011;64851;50.232;20.364;2022-11-15T18:00:37;39.00;;;23.70;;
76117;SDS011;64851;50.232;20.364;2022-11-15T18:03:34;33.90;;;23.00;;
76117;SDS011;64851;50.232;20.364;2022-11-15T18:06:35;40.50;;;24.10;;
76117;SDS011;64851;50.232;20.364;2022-11-15T18:09:35;33.70;;;24.00;;
76117;SDS011;64851;50.232;20.364;2022-11-15T18:12:28;37.80;;;25.90;;
76117;SDS011;64851;50.232;20.364;2022-11-15T18:15:24;43.20;;;25.30;;
76117;SDS011;64851;50.232;20.364;2022-11-15T18:18:25;84.50;;;52.70;;
76117;SDS011;64851;50.232;20.364;2022-11-15T18:21:28;55.30;;;36.00;;
76117;SDS011;64851;50.232;20.364;2022-11-15T18:24:05;59.10;;;42.20;;
76117;SDS011;64851;50.232;20.364;2022-11-15T18:26:56;66.40;;;44.10;;
76117;SDS011;64851;50.232;20.364;2022-11-15T18:29:38;57.00;;;34.70;;
76117;SDS011;64851;50.232;20.364;2022-11-15T18:32:32;55.20;;;36.40;;
76117;SDS011;64851;50.232;20.364;2022-11-15T18:35:26;48.80;;;28.90;;
76117;SDS011;64851;50.232;20.364;2022-11-15T18:38:20;70.60;;;38.80;;
76117;SDS011;64851;50.232;20.364;2022-11-15T18:41:18;43.30;;;26.80;;
76117;SDS011;64851;50.232;20.364;2022-11-15T18:43:53;46.70;;;29.20;;
76117;SDS011;64851;50.232;20.364;2022-11-15T18:46:44;50.20;;;30.20;;
76117;SDS011;64851;50.232;20.364;2022-11-15T18:49:18;45.60;;;29.00;;
76117;SDS011;64851;50.232;20.364;2022-11-15T18:52:05;56.30;;;34.20;;
76117;SDS011;64851;50.232;20.364;2022-11-15T18:54:39;67.10;;;38.10;;
76117;SDS011;64851;50.232;20.364;2022-11-15T18:57:25;56.10;;;35.30;;
76117;SDS011;64851;50.232;20.364;2022-11-15T19:02:46;46.70;;;28.30;;
76117;SDS011;64851;50.232;20.364;2022-11-15T19:05:21;44.70;;;26.70;;
76117;SDS011;64851;50.232;20.364;2022-11-15T19:08:15;43.90;;;27.40;;
76117;SDS011;64851;50.232;20.364;2022-11-15T19:11:19;55.50;;;30.20;;
76117;SDS011;64851;50.232;20.364;2022-11-15T19:14:15;62.60;;;32.40;;
76117;SDS011;64851;50.232;20.364;2022-11-15T19:17:10;74.80;;;33.60;;
76117;SDS011;64851;50.232;20.364;2022-11-15T19:20:04;37.70;;;24.40;;
76117;SDS011;64851;50.232;20.364;2022-11-15T19:23:01;41.40;;;24.30;;
76117;SDS011;64851;50.232;20.364;2022-11-15T19:25:55;41.20;;;24.00;;
76117;SDS011;64851;50.232;20.364;2022-11-15T19:28:48;42.70;;;23.60;;
